createdAt,value
2018-03-20T00:02:02.834Z,11.45
2018-03-20T00:04:30.382Z,10.90
2018-03-20T00:06:57.903Z,12.15
2018-03-20T00:09:25.409Z,13.90
2018-03-20T00:11:52.922Z,12.10
2018-03-20T00:14:20.414Z,12.45
2018-03-20T00:16:47.934Z,10.50
2018-03-20T00:19:15.427Z,10.48
2018-03-20T00:21:42.962Z,10.98
2018-03-20T00:24:11.230Z,11.10
2018-03-20T00:26:39.522Z,14.15
2018-03-20T00:29:07.792Z,12.07
2018-03-20T00:31:36.123Z,11.93
2018-03-20T00:34:03.731Z,8.30
2018-03-20T00:36:32.029Z,12.75
2018-03-20T00:38:59.574Z,11.25
2018-03-20T00:41:27.858Z,13.38
2018-03-20T00:43:55.352Z,16.58
2018-03-20T00:46:22.897Z,12.20
2018-03-20T00:48:50.383Z,13.93
2018-03-20T00:51:17.921Z,20.23
2018-03-20T00:53:45.420Z,17.30
2018-03-20T00:56:12.936Z,16.08
2018-03-20T00:58:40.561Z,14.25
2018-03-20T01:01:08.869Z,13.68
2018-03-20T01:03:36.354Z,20.12
2018-03-20T01:06:03.964Z,15.85
2018-03-20T01:08:32.262Z,13.93
2018-03-20T01:10:59.776Z,10.13
2018-03-20T01:13:27.351Z,16.75
2018-03-20T01:15:55.728Z,13.80
2018-03-20T01:18:24.004Z,12.68
2018-03-20T01:20:52.299Z,14.13
2018-03-20T01:23:20.558Z,14.55
2018-03-20T01:25:48.851Z,12.55
2018-03-20T01:28:16.369Z,13.15
2018-03-20T01:30:45.371Z,12.88
2018-03-20T01:33:12.976Z,11.55
2018-03-20T01:35:40.450Z,15.13
2018-03-20T01:38:08.066Z,11.77
2018-03-20T01:40:39.048Z,11.23
2018-03-20T01:43:06.576Z,12.60
2018-03-20T01:45:34.079Z,11.80
2018-03-20T01:48:01.691Z,10.52
2018-03-20T01:50:29.955Z,15.52
2018-03-20T01:53:10.231Z,11.12
2018-03-20T01:55:38.491Z,11.95
2018-03-20T01:58:06.801Z,10.73
2018-03-20T02:00:34.319Z,12.85
2018-03-20T02:03:02.602Z,11.70
2018-03-20T02:05:30.886Z,15.70
2018-03-20T02:07:59.140Z,15.45
2018-03-20T02:10:27.528Z,12.77
2018-03-20T02:12:55.766Z,18.45
2018-03-20T02:15:23.315Z,13.30
2018-03-20T02:17:50.859Z,11.80
2018-03-20T02:20:18.458Z,11.12
2018-03-20T02:22:47.472Z,13.85
2018-03-20T02:25:15.871Z,14.65
2018-03-20T02:27:44.250Z,12.40
2018-03-20T02:30:11.791Z,16.73
2018-03-20T02:32:40.085Z,13.77
2018-03-20T02:35:08.357Z,13.73
2018-03-20T02:37:36.605Z,16.65
2018-03-20T02:40:04.135Z,15.70
2018-03-20T02:42:31.645Z,17.50
2018-03-20T02:44:59.899Z,14.02
2018-03-20T02:47:27.431Z,15.50
2018-03-20T02:49:54.941Z,21.05
2018-03-20T02:52:23.231Z,12.35
2018-03-20T02:54:50.724Z,14.55
2018-03-20T02:57:18.340Z,13.98
2018-03-20T02:59:45.955Z,19.80
2018-03-20T03:02:13.499Z,13.68
2018-03-20T03:04:40.988Z,15.48
2018-03-20T03:07:08.523Z,16.87
2018-03-20T03:09:36.032Z,17.08
2018-03-20T03:12:04.419Z,12.35
2018-03-20T03:14:32.669Z,11.95
2018-03-20T03:17:01.093Z,19.42
2018-03-20T03:19:28.600Z,17.17
2018-03-20T03:21:56.092Z,11.82
2018-03-20T03:24:23.628Z,14.45
2018-03-20T03:26:51.879Z,13.13
2018-03-20T03:29:19.399Z,15.90
2018-03-20T03:31:46.887Z,14.73
2018-03-20T03:34:14.399Z,16.15
2018-03-20T03:36:41.900Z,15.15
2018-03-20T03:39:09.512Z,14.90
2018-03-20T03:41:37.795Z,14.23
2018-03-20T03:44:05.354Z,16.65
2018-03-20T03:46:32.850Z,15.98
2018-03-20T03:49:00.466Z,14.68
2018-03-20T03:51:28.026Z,15.05
2018-03-20T03:53:56.306Z,14.57
2018-03-20T03:56:23.811Z,20.85
2018-03-20T03:58:51.324Z,14.35
2018-03-20T04:01:18.824Z,14.25
2018-03-20T04:03:46.403Z,15.40
2018-03-20T04:06:13.995Z,16.90
2018-03-20T04:08:42.291Z,21.45
2018-03-20T04:11:09.786Z,15.95
2018-03-20T04:13:37.541Z,15.70
2018-03-20T04:16:05.058Z,16.95
2018-03-20T04:18:32.563Z,20.80
2018-03-20T04:21:00.067Z,18.25
2018-03-20T04:23:28.345Z,14.70
2018-03-20T04:25:56.604Z,17.55
2018-03-20T04:28:24.891Z,14.38
2018-03-20T04:30:52.404Z,17.55
2018-03-20T04:33:19.967Z,18.75
2018-03-20T04:35:47.571Z,18.67
2018-03-20T04:38:15.938Z,15.55
2018-03-20T04:40:44.201Z,17.02
2018-03-20T04:43:11.708Z,17.83
2018-03-20T04:45:39.192Z,14.38
2018-03-20T04:48:06.703Z,16.65
2018-03-20T04:50:34.226Z,15.80
2018-03-20T04:53:01.819Z,15.45
2018-03-20T04:55:30.082Z,14.60
2018-03-20T04:57:58.366Z,15.93
2018-03-20T05:00:26.647Z,19.77
2018-03-20T05:02:54.944Z,16.85
2018-03-20T05:05:22.471Z,18.37
2018-03-20T05:07:50.871Z,23.92
2018-03-20T05:10:18.441Z,18.45
2018-03-20T05:12:45.957Z,15.57
2018-03-20T05:15:13.541Z,14.98
2018-03-20T05:17:58.571Z,20.10
2018-03-20T05:20:31.926Z,16.40
2018-03-20T05:23:01.873Z,15.20
2018-03-20T05:25:29.399Z,14.45
2018-03-20T05:27:56.937Z,23.73
2018-03-20T05:30:25.183Z,18.15
2018-03-20T05:32:52.696Z,21.92
2018-03-20T05:35:20.195Z,22.85
2018-03-20T05:37:47.742Z,25.15
2018-03-20T05:40:15.233Z,19.12
2018-03-20T05:42:43.498Z,18.30
2018-03-20T05:45:11.029Z,19.83
2018-03-20T05:47:44.299Z,19.00
2018-03-20T05:50:14.537Z,20.50
2018-03-20T05:52:42.052Z,14.02
2018-03-20T05:55:10.362Z,17.02
2018-03-20T05:57:37.860Z,24.42
2018-03-20T06:00:05.445Z,27.05
2018-03-20T06:02:33.721Z,19.17
2018-03-20T06:05:02.095Z,21.00
2018-03-20T06:07:30.401Z,16.95
2018-03-20T06:09:57.899Z,16.80
2018-03-20T06:12:25.408Z,17.65
2018-03-20T06:14:53.072Z,15.90
2018-03-20T06:17:21.384Z,17.80
2018-03-20T06:19:48.902Z,27.65
2018-03-20T06:22:17.156Z,22.27
2018-03-20T06:24:45.591Z,18.37
2018-03-20T06:27:13.118Z,17.00
2018-03-20T06:29:40.649Z,18.70
2018-03-20T06:32:08.163Z,22.85
2018-03-20T06:34:35.719Z,16.58
2018-03-20T06:37:03.239Z,19.98
2018-03-20T06:39:31.525Z,24.50
2018-03-20T06:41:59.122Z,21.12
2018-03-20T06:44:27.386Z,25.17
2018-03-20T06:46:54.873Z,24.65
2018-03-20T06:49:22.480Z,23.65
2018-03-20T06:51:50.784Z,21.92
2018-03-20T06:54:18.338Z,17.92
2018-03-20T06:56:45.896Z,18.40
2018-03-20T06:59:13.531Z,20.88
2018-03-20T07:01:41.818Z,19.40
2018-03-20T07:04:09.398Z,19.73
2018-03-20T07:06:36.883Z,17.17
2018-03-20T07:09:04.497Z,14.13
2018-03-20T07:11:32.056Z,19.23
2018-03-20T07:13:59.599Z,21.02
2018-03-20T07:16:27.883Z,23.92
2018-03-20T07:18:56.182Z,15.20
2018-03-20T07:21:23.660Z,14.52
2018-03-20T07:23:51.179Z,14.93
2018-03-20T07:26:18.748Z,20.08
2018-03-20T07:28:47.045Z,18.67
2018-03-20T07:31:14.662Z,16.25
2018-03-20T07:33:42.949Z,26.67
2018-03-20T07:36:10.547Z,24.05
2018-03-20T07:38:38.160Z,27.62
2018-03-20T07:41:06.442Z,19.70
2018-03-20T07:43:34.749Z,24.12
2018-03-20T07:46:02.227Z,26.62
2018-03-20T07:48:29.804Z,22.65
2018-03-20T07:50:57.268Z,21.33
2018-03-20T07:53:24.845Z,21.27
2018-03-20T07:55:53.095Z,23.77
2018-03-20T07:58:20.697Z,25.60
2018-03-20T08:00:48.244Z,25.02
2018-03-20T08:03:16.500Z,31.35
2018-03-20T08:05:44.088Z,32.55
2018-03-20T08:08:12.457Z,31.15
2018-03-20T08:10:39.989Z,35.13
2018-03-20T08:13:07.643Z,35.05
2018-03-20T08:15:35.190Z,41.90
2018-03-20T08:18:02.677Z,44.47
2018-03-20T08:20:31.005Z,39.90
2018-03-20T08:22:58.531Z,33.30
2018-03-20T08:25:26.912Z,41.63
2018-03-20T08:27:55.211Z,41.72
2018-03-20T08:30:22.712Z,43.97
2018-03-20T08:32:50.220Z,42.08
2018-03-20T08:35:18.504Z,42.20
2018-03-20T08:37:46.019Z,43.33
2018-03-20T08:40:13.543Z,51.75
2018-03-20T08:42:41.078Z,65.12
2018-03-20T08:45:08.617Z,62.42
2018-03-20T08:47:36.939Z,78.05
2018-03-20T08:50:04.582Z,73.10
2018-03-20T08:52:32.116Z,83.62
2018-03-20T08:54:59.671Z,70.25
2018-03-20T08:57:27.934Z,58.10
2018-03-20T08:59:56.336Z,60.30
2018-03-20T09:02:24.713Z,70.25
2018-03-20T09:04:53.029Z,72.10
2018-03-20T09:07:20.520Z,60.15
2018-03-20T09:09:48.031Z,63.47
2018-03-20T09:12:15.586Z,59.55
2018-03-20T09:14:43.633Z,57.05
2018-03-20T09:17:12.039Z,72.85
2018-03-20T09:19:43.504Z,63.97
2018-03-20T09:22:11.024Z,66.47
2018-03-20T09:24:39.279Z,66.37
2018-03-20T09:27:06.815Z,56.00
2018-03-20T09:29:34.316Z,58.28
2018-03-20T09:32:02.585Z,52.15
2018-03-20T09:34:30.980Z,55.22
2018-03-20T09:36:58.527Z,57.90
2018-03-20T09:39:26.805Z,59.88
2018-03-20T09:41:55.246Z,63.75
2018-03-20T09:44:23.560Z,52.38
2018-03-20T09:46:51.957Z,58.50
2018-03-20T09:49:19.444Z,51.20
2018-03-20T09:51:47.094Z,50.03
2018-03-20T09:54:14.587Z,57.05
2018-03-20T09:56:42.155Z,52.28
2018-03-20T09:59:09.666Z,45.17
2018-03-20T10:01:37.209Z,51.67
2018-03-20T10:04:04.763Z,49.28
2018-03-20T10:06:32.319Z,38.85
2018-03-20T10:08:59.827Z,31.10
2018-03-20T10:11:27.378Z,38.55
2018-03-20T10:13:54.872Z,28.85
2018-03-20T10:16:22.459Z,30.45
2018-03-20T10:18:49.981Z,24.23
2018-03-20T10:21:17.518Z,32.40
2018-03-20T10:23:45.044Z,35.33
2018-03-20T10:26:12.583Z,21.45
2018-03-20T10:28:40.837Z,27.45
2018-03-20T10:31:08.343Z,26.98
2018-03-20T10:33:35.881Z,30.85
2018-03-20T10:36:04.284Z,26.73
2018-03-20T10:38:31.767Z,31.60
2018-03-20T10:40:59.372Z,17.15
2018-03-20T10:43:27.648Z,20.00
2018-03-20T10:45:55.931Z,24.50
2018-03-20T10:48:23.499Z,28.48
2018-03-20T10:50:51.882Z,20.83
2018-03-20T10:53:19.404Z,24.90
2018-03-20T10:55:46.980Z,20.33
2018-03-20T10:58:15.232Z,22.05
2018-03-20T11:00:48.582Z,14.43
2018-03-20T11:03:16.107Z,14.60
2018-03-20T11:05:44.405Z,14.30
2018-03-20T11:08:11.939Z,15.55
2018-03-20T11:10:40.339Z,14.05
2018-03-20T11:13:07.817Z,13.38
2018-03-20T11:15:35.360Z,11.55
2018-03-20T11:18:02.848Z,7.75
2018-03-20T11:20:30.457Z,6.93
2018-03-20T11:22:58.840Z,7.35
2018-03-20T11:25:27.212Z,5.45
2018-03-20T11:27:55.470Z,6.68
2018-03-20T11:30:23.049Z,9.98
2018-03-20T11:32:51.310Z,6.15
2018-03-20T11:35:18.844Z,5.75
2018-03-20T11:37:46.315Z,6.10
2018-03-20T11:40:13.835Z,9.27
2018-03-20T11:42:41.360Z,5.85
2018-03-20T11:45:09.612Z,6.10
2018-03-20T11:47:37.177Z,4.47
2018-03-20T11:50:04.791Z,5.05
2018-03-20T11:52:32.332Z,6.90
2018-03-20T11:54:59.827Z,4.00
2018-03-20T11:57:27.415Z,4.20
2018-03-20T11:59:56.543Z,5.85
2018-03-20T12:02:24.070Z,6.62
2018-03-20T12:04:51.743Z,5.90
2018-03-20T12:07:19.273Z,4.10
2018-03-20T12:09:48.706Z,5.75
2018-03-20T12:12:16.985Z,4.75
2018-03-20T12:14:45.287Z,7.85
2018-03-20T12:17:12.818Z,7.28
2018-03-20T12:19:41.080Z,5.85
2018-03-20T12:22:08.584Z,4.65
2018-03-20T12:24:36.149Z,4.35
2018-03-20T12:27:03.669Z,5.10
2018-03-20T12:29:31.998Z,6.20
2018-03-20T12:31:59.504Z,3.72
2018-03-20T12:34:27.760Z,3.10
2018-03-20T12:36:55.393Z,4.10
2018-03-20T12:39:23.006Z,7.32
2018-03-20T12:41:51.389Z,2.55
2018-03-20T12:44:19.663Z,5.03
2018-03-20T12:46:47.944Z,3.78
2018-03-20T12:49:15.518Z,3.90
2018-03-20T12:51:43.822Z,4.53
2018-03-20T12:54:14.599Z,4.85
2018-03-20T12:56:42.178Z,7.87
2018-03-20T12:59:10.451Z,6.05
2018-03-20T13:01:38.704Z,2.03
2018-03-20T13:04:06.230Z,2.90
2018-03-20T13:06:33.706Z,3.10
2018-03-20T13:09:01.312Z,1.70
2018-03-20T13:11:28.871Z,3.95
2018-03-20T13:13:56.519Z,3.17
2018-03-20T13:16:24.819Z,4.10
2018-03-20T13:18:52.339Z,6.07
2018-03-20T13:21:19.928Z,3.62
2018-03-20T13:23:48.366Z,2.50
2018-03-20T13:26:16.476Z,4.53
2018-03-20T13:28:44.863Z,2.55
2018-03-20T13:31:12.402Z,2.85
2018-03-20T13:33:40.679Z,2.30
2018-03-20T13:36:09.069Z,3.05
2018-03-20T13:38:37.362Z,2.85
2018-03-20T13:41:04.851Z,7.87
2018-03-20T13:43:32.348Z,3.08
2018-03-20T13:46:00.619Z,2.35
2018-03-20T13:48:28.188Z,2.37
2018-03-20T13:50:58.678Z,4.07
2018-03-20T13:53:26.787Z,3.42
2018-03-20T13:55:55.052Z,2.75
2018-03-20T13:58:22.628Z,4.62
2018-03-20T14:00:50.901Z,2.35
2018-03-20T14:03:18.463Z,5.35
2018-03-20T14:05:46.732Z,3.85
2018-03-20T14:08:15.015Z,2.40
2018-03-20T14:10:43.299Z,3.10
2018-03-20T14:13:11.945Z,2.58
2018-03-20T14:15:39.523Z,2.50
2018-03-20T14:18:07.054Z,3.30
2018-03-20T14:20:34.774Z,2.70
2018-03-20T14:23:02.283Z,3.70
2018-03-20T14:25:29.849Z,1.70
2018-03-20T14:27:57.379Z,1.90
2018-03-20T14:30:24.893Z,1.80
2018-03-20T14:32:53.176Z,1.85
2018-03-20T14:35:20.812Z,6.18
2018-03-20T14:37:48.328Z,3.17
2018-03-20T14:40:15.837Z,3.05
2018-03-20T14:42:43.350Z,1.87
2018-03-20T14:45:11.070Z,3.03
2018-03-20T14:47:39.325Z,2.55
2018-03-20T14:50:06.830Z,4.53
2018-03-20T14:52:34.349Z,4.78
2018-03-20T14:55:01.858Z,4.05
2018-03-20T14:57:29.391Z,1.60
2018-03-20T14:59:56.867Z,4.65
2018-03-20T15:02:24.564Z,1.60
2018-03-20T15:04:52.107Z,3.08
2018-03-20T15:07:19.671Z,5.60
2018-03-20T15:09:47.124Z,1.77
2018-03-20T15:12:14.656Z,3.30
2018-03-20T15:14:42.142Z,3.35
2018-03-20T15:17:09.752Z,1.35
2018-03-20T15:19:37.992Z,1.85
2018-03-20T15:22:05.597Z,2.53
2018-03-20T15:24:33.847Z,3.53
2018-03-20T15:27:01.387Z,2.62
2018-03-20T15:29:28.883Z,1.55
2018-03-20T15:31:57.206Z,2.17
2018-03-20T15:34:24.700Z,2.25
2018-03-20T15:36:52.231Z,3.92
2018-03-20T15:39:19.727Z,2.67
2018-03-20T15:41:48.027Z,3.97
2018-03-20T15:44:15.602Z,5.87
2018-03-20T15:46:43.125Z,3.58
2018-03-20T15:49:11.367Z,2.58
2018-03-20T15:51:38.903Z,2.97
2018-03-20T15:54:06.434Z,3.75
2018-03-20T15:56:34.799Z,6.45
2018-03-20T15:59:03.076Z,3.60
2018-03-20T16:01:31.472Z,2.15
2018-03-20T16:03:58.969Z,2.00
2018-03-20T16:06:26.485Z,1.55
2018-03-20T16:08:53.971Z,2.58
2018-03-20T16:11:21.547Z,1.20
2018-03-20T16:13:49.072Z,1.87
2018-03-20T16:16:16.689Z,1.60
2018-03-20T16:18:44.278Z,1.92
2018-03-20T16:21:12.587Z,2.67
2018-03-20T16:23:40.072Z,4.00
2018-03-20T16:26:07.592Z,3.20
2018-03-20T16:28:35.089Z,1.92
2018-03-20T16:31:04.561Z,1.67
2018-03-20T16:33:32.091Z,3.35
2018-03-20T16:36:00.390Z,4.30
2018-03-20T16:38:27.915Z,2.25
2018-03-20T16:40:56.290Z,2.12
2018-03-20T16:43:24.561Z,1.65
2018-03-20T16:45:52.233Z,3.62
2018-03-20T16:48:19.672Z,2.78
2018-03-20T16:50:47.283Z,2.75
2018-03-20T16:53:14.774Z,2.15
2018-03-20T16:55:42.307Z,3.40
2018-03-20T16:58:09.818Z,1.60
2018-03-20T17:00:37.339Z,1.73
2018-03-20T17:03:05.003Z,2.65
2018-03-20T17:05:32.538Z,2.47
2018-03-20T17:08:00.021Z,1.85
2018-03-20T17:10:27.580Z,4.05
2018-03-20T17:12:55.089Z,4.87
2018-03-20T17:15:23.375Z,2.45
2018-03-20T17:17:50.858Z,2.28
2018-03-20T17:20:18.424Z,5.60
2018-03-20T17:22:45.992Z,1.42
2018-03-20T17:25:13.452Z,5.00
2018-03-20T17:27:41.169Z,2.72
2018-03-20T17:30:12.335Z,3.05
2018-03-20T17:32:39.880Z,5.22
2018-03-20T17:35:07.387Z,3.20
2018-03-20T17:37:34.922Z,2.12
2018-03-20T17:40:02.571Z,1.73
2018-03-20T17:42:30.097Z,3.47
2018-03-20T17:44:58.351Z,2.95
2018-03-20T17:47:25.887Z,2.75
2018-03-20T17:49:53.408Z,8.00
2018-03-20T17:52:20.959Z,3.05
2018-03-20T17:54:49.222Z,2.85
2018-03-20T17:57:17.537Z,3.45
2018-03-20T17:59:45.050Z,4.30
2018-03-20T18:02:13.425Z,4.05
2018-03-20T18:04:40.932Z,4.55
2018-03-20T18:07:09.112Z,4.57
2018-03-20T18:09:36.638Z,3.25
2018-03-20T18:12:04.199Z,3.20
2018-03-20T18:14:32.493Z,2.67
2018-03-20T18:16:59.985Z,2.10
2018-03-20T18:19:27.531Z,3.25
2018-03-20T18:21:55.099Z,5.60
2018-03-20T18:24:22.629Z,3.30
2018-03-20T18:26:50.117Z,4.78
2018-03-20T18:29:17.735Z,5.43
2018-03-20T18:31:46.086Z,9.57
2018-03-20T18:34:14.558Z,4.87
2018-03-20T18:36:42.331Z,8.35
2018-03-20T18:39:09.831Z,4.87
2018-03-20T18:41:37.378Z,8.63
2018-03-20T18:44:04.898Z,6.28
2018-03-20T18:46:32.426Z,7.28
2018-03-20T18:48:59.989Z,4.55
2018-03-20T18:51:27.495Z,3.97
2018-03-20T18:53:56.045Z,5.20
2018-03-20T18:56:23.539Z,6.93
2018-03-20T18:58:51.842Z,5.05
2018-03-20T19:01:19.370Z,5.03
2018-03-20T19:03:47.616Z,6.30
2018-03-20T19:06:15.139Z,7.50
2018-03-20T19:08:42.643Z,12.68
2018-03-20T19:11:13.249Z,8.13
2018-03-20T19:13:40.782Z,7.20
2018-03-20T19:16:09.028Z,7.75
2018-03-20T19:18:37.334Z,10.55
2018-03-20T19:21:04.839Z,5.90
2018-03-20T19:23:33.140Z,13.75
2018-03-20T19:26:01.431Z,15.02
2018-03-20T19:28:28.982Z,9.40
2018-03-20T19:30:57.262Z,6.60
2018-03-20T19:33:25.696Z,10.88
2018-03-20T19:35:54.838Z,9.45
2018-03-20T19:38:33.479Z,6.30
2018-03-20T19:41:01.172Z,4.62
2018-03-20T19:43:28.720Z,5.15
2018-03-20T19:45:56.290Z,10.43
2018-03-20T19:48:23.890Z,5.53
2018-03-20T19:50:52.151Z,6.20
2018-03-20T19:53:21.207Z,5.85
2018-03-20T19:55:49.024Z,9.07
2018-03-20T19:58:17.310Z,9.90
2018-03-20T20:00:45.623Z,7.80
2018-03-20T20:03:17.359Z,8.85
2018-03-20T20:05:44.916Z,5.70
2018-03-20T20:08:12.496Z,6.75
2018-03-20T20:10:39.986Z,8.20
2018-03-20T20:13:07.577Z,6.78
2018-03-20T20:15:35.874Z,9.43
2018-03-20T20:18:03.494Z,8.68
2018-03-20T20:20:31.051Z,7.45
2018-03-20T20:22:58.830Z,7.18
2018-03-20T20:25:26.613Z,5.28
2018-03-20T20:27:55.099Z,5.78
2018-03-20T20:30:22.598Z,8.18
2018-03-20T20:32:51.836Z,4.80
2018-03-20T20:35:19.449Z,15.65
2018-03-20T20:37:48.033Z,34.67
2018-03-20T20:40:16.016Z,12.77
2018-03-20T20:42:43.579Z,9.95
2018-03-20T20:45:12.100Z,6.97
2018-03-20T20:47:40.494Z,17.87
2018-03-20T20:50:07.949Z,8.73
2018-03-20T20:52:35.483Z,12.63
2018-03-20T20:55:03.827Z,9.13
2018-03-20T20:57:31.501Z,8.45
2018-03-20T20:59:58.994Z,13.57
2018-03-20T21:02:26.527Z,9.13
2018-03-20T21:04:54.107Z,8.18
2018-03-20T21:07:22.416Z,22.40
2018-03-20T21:09:49.946Z,10.38
2018-03-20T21:12:18.248Z,17.58
2018-03-20T21:14:46.800Z,21.20
2018-03-20T21:17:15.061Z,28.62
2018-03-20T21:19:42.627Z,26.35
2018-03-20T21:22:11.032Z,12.07
2018-03-20T21:24:38.553Z,7.78
2018-03-20T21:27:06.028Z,7.70
2018-03-20T21:29:34.408Z,13.45
2018-03-20T21:32:02.666Z,7.12
2018-03-20T21:34:30.256Z,8.27
2018-03-20T21:36:58.588Z,5.93
2018-03-20T21:39:26.181Z,8.13
2018-03-20T21:41:54.488Z,7.20
2018-03-20T21:44:22.024Z,5.95
2018-03-20T21:46:51.173Z,5.72
2018-03-20T21:49:19.716Z,6.80
2018-03-20T21:51:47.200Z,8.50
2018-03-20T21:54:14.894Z,7.00
2018-03-20T21:56:43.242Z,7.15
2018-03-20T21:59:10.761Z,8.60
2018-03-20T22:01:39.012Z,6.30
2018-03-20T22:04:06.600Z,6.90
2018-03-20T22:06:35.189Z,5.68
2018-03-20T22:09:03.465Z,9.68
2018-03-20T22:11:31.747Z,10.20
2018-03-20T22:13:59.277Z,9.60
2018-03-20T22:16:28.914Z,7.93
2018-03-20T22:18:56.504Z,5.68
2018-03-20T22:21:24.157Z,10.27
2018-03-20T22:23:51.675Z,8.13
2018-03-20T22:26:20.009Z,10.63
2018-03-20T22:28:47.611Z,9.20
2018-03-20T22:31:15.986Z,11.43
2018-03-20T22:33:44.264Z,6.82
2018-03-20T22:36:15.909Z,8.70
2018-03-20T22:38:43.392Z,9.27
2018-03-20T22:41:10.911Z,11.38
2018-03-20T22:43:38.494Z,12.88
2018-03-20T22:46:06.854Z,16.48
2018-03-20T22:48:34.392Z,9.80
2018-03-20T22:51:01.920Z,12.37
2018-03-20T22:53:29.408Z,10.40
2018-03-20T22:55:56.937Z,13.38
2018-03-20T22:58:24.430Z,11.88
2018-03-20T23:00:51.968Z,14.32
2018-03-20T23:03:19.460Z,10.35
2018-03-20T23:05:47.009Z,10.60
2018-03-20T23:08:14.476Z,11.38
2018-03-20T23:10:42.043Z,12.32
2018-03-20T23:13:09.523Z,8.57
2018-03-20T23:15:37.800Z,8.95
2018-03-20T23:18:06.068Z,10.23
2018-03-20T23:20:34.356Z,12.18
2018-03-20T23:23:02.730Z,12.18
2018-03-20T23:25:31.040Z,10.77
2018-03-20T23:27:58.518Z,10.93
2018-03-20T23:30:26.054Z,16.33
2018-03-20T23:32:53.548Z,10.25
2018-03-20T23:35:21.072Z,10.77
2018-03-20T23:37:48.587Z,10.02
2018-03-20T23:40:16.967Z,9.25
2018-03-20T23:42:45.312Z,9.10
2018-03-20T23:45:12.818Z,12.35
2018-03-20T23:47:40.322Z,16.83
2018-03-20T23:50:07.996Z,11.20
2018-03-20T23:52:35.491Z,9.43
2018-03-20T23:55:03.797Z,8.68
2018-03-20T23:57:31.266Z,11.07
2018-03-20T23:59:59.018Z,9.75
